Time;durP1;ratioP1;P1;durP2;ratioP2;P2;SDS_P1;SDS_P2;PMS_P1;PMS_P2;Temp;Humidity;BMP_temperature;BMP_pressure;BME280_temperature;BME280_humidity;BME280_pressure;Samples;Min_cycle;Max_cycle;Signal;HPM_P1;HPM_P2
2023/05/26 00:01:53;;;;;;;;;;;;;;;15.87;36.84;97517.97;6220540;28;19921;-73
2023/05/26 00:05:01;;;;;;;;;;;;;;;15.85;36.91;97522.56;6220445;28;19921;-75
2023/05/26 00:08:03;;;;;;;;;;;;;;;15.84;37.24;97523.53;6202622;28;20386;-74
2023/05/26 00:11:07;;;;;;;;;;;;;;;15.84;37.09;97529.66;6220176;28;19921;-74
2023/05/26 00:14:14;;;;;;;;;;;;;;;15.81;36.97;97545.00;6201986;28;19921;-74
2023/05/26 00:17:18;;;;;;;;;;;;;;;15.83;37.00;97545.72;6219992;28;19929;-74
2023/05/26 00:20:23;;;;;;;;;;;;;;;15.87;36.95;97536.56;6220091;28;19925;-74
2023/05/26 00:23:24;;;;;;;;;;;;;;;15.97;36.62;97545.53;6224087;28;20306;-74
2023/05/26 00:26:25;;;;;;;;;;;;;;;16.03;36.74;97550.38;6223831;28;19925;-74
2023/05/26 00:29:30;;;;;;;;;;;;;;;16.10;36.89;97543.59;6224317;28;20398;-75
2023/05/26 00:32:33;;;;;;;;;;;;;;;16.24;36.21;97541.72;6224314;28;20023;-74
2023/05/26 00:35:37;;;;;;;;;;;;;;;16.39;35.91;97532.56;6224431;28;19922;-74
2023/05/26 00:38:38;;;;;;;;;;;;;;;16.58;36.08;97535.44;6223412;28;19929;-74
2023/05/26 00:41:42;;;;;;;;;;;;;;;16.68;35.66;97548.03;6223492;28;20319;-75
2023/05/26 00:44:47;;;;;;;;;;;;;;;16.83;35.66;97541.53;6223916;28;20007;-73
2023/05/26 00:47:51;;;;;;;;;;;;;;;16.97;35.58;97538.59;6206018;28;19921;-74
2023/05/26 00:50:56;;;;;;;;;;;;;;;17.06;35.28;97543.19;6223684;28;19925;-74
2023/05/26 00:54:03;;;;;;;;;;;;;;;17.16;35.73;97542.47;6224150;28;19928;-74
2023/05/26 00:57:05;;;;;;;;;;;;;;;17.28;34.89;97538.78;6223043;28;19929;-75
2023/05/26 01:00:09;;;;;;;;;;;;;;;17.41;35.58;97542.16;6223506;28;19921;-75
2023/05/26 01:03:14;;;;;;;;;;;;;;;17.57;34.80;97539.06;6221841;28;20383;-73
2023/05/26 01:06:16;;;;;;;;;;;;;;;17.73;35.02;97543.97;6223421;28;19921;-74
2023/05/26 01:09:20;;;;;;;;;;;;;;;17.86;34.87;97555.31;6223580;28;19921;-74
2023/05/26 01:12:26;;;;;;;;;;;;;;;18.01;34.64;97550.50;6222559;28;19921;-74
2023/05/26 01:15:33;;;;;;;;;;;;;;;18.13;34.70;97553.97;6223213;28;19925;-75
2023/05/26 01:18:41;;;;;;;;;;;;;;;18.25;34.39;97550.25;6222452;28;19928;-74
2023/05/26 01:21:45;;;;;;;;;;;;;;;18.37;33.81;97543.88;6223116;28;19921;-73
2023/05/26 01:25:09;;;;;;;;;;;;;;;18.53;34.51;97550.53;6223271;28;20342;-74
2023/05/26 01:28:16;;;;;;;;;;;;;;;18.73;34.14;97543.47;6222972;28;19922;-74
2023/05/26 01:31:20;;;;;;;;;;;;;;;18.89;33.50;97548.34;6223518;28;19921;-73
2023/05/26 01:34:23;;;;;;;;;;;;;;;19.05;33.65;97544.19;6222972;28;20008;-73
2023/05/26 01:37:24;;;;;;;;;;;;;;;19.23;33.26;97543.53;6223793;28;20383;-74
2023/05/26 01:40:28;;;;;;;;;;;;;;;19.34;33.37;97546.09;6223025;28;20403;-74
2023/05/26 01:43:38;;;;;;;;;;;;;;;19.55;33.30;97551.31;6221835;28;19922;-74
2023/05/26 01:46:44;;;;;;;;;;;;;;;19.84;33.71;97545.16;6222690;28;19921;-74
2023/05/26 01:49:50;;;;;;;;;;;;;;;20.07;33.07;97551.03;6222375;28;19922;-75
2023/05/26 01:52:56;;;;;;;;;;;;;;;20.27;32.95;97560.75;6221579;28;20326;-74
2023/05/26 01:56:02;;;;;;;;;;;;;;;20.41;32.74;97562.97;6222590;28;20410;-74
2023/05/26 01:59:08;;;;;;;;;;;;;;;20.46;32.29;97557.16;6222089;28;19921;-74
2023/05/26 02:02:09;;;;;;;;;;;;;;;20.46;32.68;97557.16;6221222;28;19928;-75
2023/05/26 02:05:13;;;;;;;;;;;;;;;20.46;32.55;97551.81;6222361;28;19921;-74
2023/05/26 02:08:14;;;;;;;;;;;;;;;20.44;32.18;97556.47;6220830;28;19917;-74
2023/05/26 02:11:15;;;;;;;;;;;;;;;20.37;32.46;97558.88;6220985;28;19933;-74
2023/05/26 02:14:16;;;;;;;;;;;;;;;20.30;32.84;97555.09;6221317;28;19948;-75
2023/05/26 02:17:20;;;;;;;;;;;;;;;20.20;33.49;97556.94;6221904;28;19918;-75
2023/05/26 02:20:43;;;;;;;;;;;;;;;20.11;33.46;97547.94;6220594;28;20394;-73
2023/05/26 02:23:46;;;;;;;;;;;;;;;20.07;33.58;97559.06;6221724;28;19921;-73
2023/05/26 02:26:47;;;;;;;;;;;;;;;20.03;33.57;97555.84;6221091;28;20307;-74
2023/05/26 02:29:48;;;;;;;;;;;;;;;20.12;33.58;97549.63;6220895;28;19917;-75
2023/05/26 02:32:49;;;;;;;;;;;;;;;19.99;33.39;97559.78;6220427;28;19993;-75
2023/05/26 02:35:50;;;;;;;;;;;;;;;19.87;33.41;97558.22;6220029;28;19924;-74
2023/05/26 02:38:53;;;;;;;;;;;;;;;19.84;33.56;97558.50;6220091;28;20439;-75
2023/05/26 02:41:54;;;;;;;;;;;;;;;19.87;33.61;97558.22;6220942;28;19927;-74
2023/05/26 02:44:55;;;;;;;;;;;;;;;19.76;33.34;97563.69;6220064;28;19921;-75
2023/05/26 02:47:59;;;;;;;;;;;;;;;19.83;33.46;97567.50;6221106;28;19921;-75
2023/05/26 02:51:00;;;;;;;;;;;;;;;19.87;33.54;97566.22;6221153;28;20361;-74
2023/05/26 02:54:01;;;;;;;;;;;;;;;19.82;33.21;97563.16;6220724;28;20023;-74
2023/05/26 02:57:05;;;;;;;;;;;;;;;19.77;33.06;97562.75;6221034;28;19921;-75
2023/05/26 03:00:12;;;;;;;;;;;;;;;19.87;33.13;97564.44;6220542;28;19921;-74
2023/05/26 03:03:16;;;;;;;;;;;;;;;20.06;33.35;97560.06;6221062;28;20435;-75
2023/05/26 03:06:19;;;;;;;;;;;;;;;20.12;33.15;97554.97;6219938;28;19927;-74
2023/05/26 03:09:20;;;;;;;;;;;;;;;20.14;33.11;97557.50;6202638;28;19921;-74
2023/05/26 03:12:24;;;;;;;;;;;;;;;20.22;32.98;97549.63;6220824;28;19921;-74
2023/05/26 03:15:26;;;;;;;;;;;;;;;20.37;32.82;97552.69;6219978;28;20023;-74
2023/05/26 03:18:27;;;;;;;;;;;;;;;20.49;32.54;97551.53;6220727;28;19927;-74
2023/05/26 03:21:32;;;;;;;;;;;;;;;20.65;32.45;97555.47;6220373;28;20015;-75
2023/05/26 03:24:36;;;;;;;;;;;;;;;20.78;32.52;97554.16;6220389;28;19928;-74
2023/05/26 03:27:38;;;;;;;;;;;;;;;20.91;32.18;97550.28;6220341;28;20024;-74
2023/05/26 03:30:39;;;;;;;;;;;;;;;21.08;31.93;97544.97;6219866;28;19917;-75
2023/05/26 03:33:40;;;;;;;;;;;;;;;21.18;31.74;97541.44;6202316;28;19921;-75
2023/05/26 03:36:45;;;;;;;;;;;;;;;21.27;31.63;97548.56;6219845;28;19943;-74
2023/05/26 03:39:52;;;;;;;;;;;;;;;21.41;31.50;97536.53;6203274;28;19921;-74
2023/05/26 03:42:55;;;;;;;;;;;;;;;21.55;31.44;97541.34;6220650;28;19921;-75
2023/05/26 03:45:56;;;;;;;;;;;;;;;21.70;31.38;97547.03;6220509;28;19928;-74
2023/05/26 03:49:00;;;;;;;;;;;;;;;21.84;31.07;97549.16;6220142;28;19928;-73
2023/05/26 03:52:04;;;;;;;;;;;;;;;22.01;30.86;97549.31;6220262;28;19921;-73
2023/05/26 03:55:10;;;;;;;;;;;;;;;22.16;30.65;97547.75;6219799;28;19928;-73
2023/05/26 03:58:12;;;;;;;;;;;;;;;22.37;30.25;97555.50;6224075;28;20304;-74
2023/05/26 04:01:16;;;;;;;;;;;;;;;22.53;30.30;97550.25;6225051;28;19925;-74
2023/05/26 04:04:17;;;;;;;;;;;;;;;22.69;30.08;97538.75;6223954;28;20295;-74
2023/05/26 04:07:20;;;;;;;;;;;;;;;22.89;29.84;97543.88;6223838;28;19921;-74
2023/05/26 04:10:23;;;;;;;;;;;;;;;23.09;29.62;97537.28;6224855;28;19921;-74
2023/05/26 04:13:26;;;;;;;;;;;;;;;23.26;29.38;97547.06;6223772;28;19921;-74
2023/05/26 04:16:30;;;;;;;;;;;;;;;23.48;29.34;97542.94;6224658;28;19921;-75
2023/05/26 04:19:31;;;;;;;;;;;;;;;23.70;28.96;97538.81;6223345;28;19921;-74
2023/05/26 04:22:34;;;;;;;;;;;;;;;23.94;28.64;97545.22;6224584;28;20299;-74
2023/05/26 04:25:37;;;;;;;;;;;;;;;24.16;28.51;97547.25;6224444;28;20342;-74
2023/05/26 04:28:38;;;;;;;;;;;;;;;24.41;28.28;97550.75;6223353;28;19922;-75
2023/05/26 04:31:41;;;;;;;;;;;;;;;24.67;27.80;97548.91;6223943;28;20004;-74
2023/05/26 04:34:45;;;;;;;;;;;;;;;24.95;27.71;97544.78;6224348;28;19921;-74
2023/05/26 04:37:48;;;;;;;;;;;;;;;26.06;26.51;97553.63;6223355;28;20052;-73
2023/05/26 04:40:57;;;;;;;;;;;;;;;28.62;23.74;97560.91;6223966;28;19921;-73
2023/05/26 04:43:59;;;;;;;;;;;;;;;31.47;21.55;97564.41;6223391;28;19928;-73
2023/05/26 04:47:03;;;;;;;;;;;;;;;34.27;19.62;97566.16;6222781;28;19929;-73
2023/05/26 04:50:06;;;;;;;;;;;;;;;36.73;18.07;97566.69;6222522;28;19921;-74
2023/05/26 04:53:07;;;;;;;;;;;;;;;39.01;16.33;97568.78;6222583;28;19936;-73
2023/05/26 04:56:13;;;;;;;;;;;;;;;41.49;15.51;97576.09;6223851;28;19921;-74
2023/05/26 04:59:21;;;;;;;;;;;;;;;43.84;13.91;97576.09;6223351;28;19927;-74
2023/05/26 05:02:24;;;;;;;;;;;;;;;46.07;11.77;97573.56;6223440;28;19921;-73
2023/05/26 05:05:30;;;;;;;;;;;;;;;47.68;12.73;97582.78;6223734;28;19925;-74
2023/05/26 05:08:31;;;;;;;;;;;;;;;48.58;11.78;97580.59;6222354;28;20294;-74
2023/05/26 05:11:34;;;;;;;;;;;;;;;49.37;10.84;97573.66;6223618;28;19921;-74
2023/05/26 05:14:41;;;;;;;;;;;;;;;50.80;11.05;97578.44;6223082;28;19968;-74
2023/05/26 05:17:47;;;;;;;;;;;;;;;51.94;10.22;97587.09;6223381;28;19928;-74
2023/05/26 05:20:48;;;;;;;;;;;;;;;52.96;8.27;97588.50;6222149;28;19921;-75
2023/05/26 05:23:50;;;;;;;;;;;;;;;53.49;8.11;97587.47;6204701;28;20310;-74
2023/05/26 05:26:58;;;;;;;;;;;;;;;54.25;9.33;97586.03;6222997;28;20416;-74
2023/05/26 05:29:59;;;;;;;;;;;;;;;54.89;8.75;97585.72;6222821;28;20330;-74
2023/05/26 05:33:02;;;;;;;;;;;;;;;55.35;8.35;97583.78;6222984;28;19921;-74
2023/05/26 05:36:06;;;;;;;;;;;;;;;55.81;7.24;97585.72;6222171;28;19976;-74
2023/05/26 05:39:10;;;;;;;;;;;;;;;56.45;8.15;97583.78;6223023;28;19929;-74
2023/05/26 05:42:13;;;;;;;;;;;;;;;57.12;5.99;97590.59;6223677;28;19921;-74
2023/05/26 05:45:17;;;;;;;;;;;;;;;57.65;6.64;97587.44;6225036;28;20022;-73
2023/05/26 05:48:24;;;;;;;;;;;;;;;57.83;5.82;97589.59;6229238;28;19928;-73
2023/05/26 05:51:29;;;;;;;;;;;;;;;57.71;6.32;97588.69;6234896;28;19921;-74
2023/05/26 05:54:34;;;;;;;;;;;;;;;58.00;6.87;97588.88;6237995;28;20015;-73
2023/05/26 05:57:38;;;;;;;;;;;;;;;58.36;6.25;97577.75;6240094;28;19928;-72
2023/05/26 06:00:42;;;;;;;;;;;;;;;58.66;5.33;97580.28;6239843;28;19921;-73
2023/05/26 06:03:47;;;;;;;;;;;;;;;58.87;4.73;97573.88;6226302;28;19905;-73
2023/05/26 06:06:51;;;;;;;;;;;;;;;59.01;6.00;97573.13;6245591;28;19928;-73
2023/05/26 06:09:53;;;;;;;;;;;;;;;59.57;5.19;97573.53;6246323;28;19921;-74
2023/05/26 06:12:57;;;;;;;;;;;;;;;59.92;3.90;97569.84;6249265;28;19913;-74
2023/05/26 06:16:03;;;;;;;;;;;;;;;60.37;5.01;97576.59;6253258;28;19908;-73
2023/05/26 06:46:16;;;;;;;;;;;;;;;60.53;2.96;97555.41;6248738;28;20024;-74
2023/05/26 07:20:51;;;;;;;;;;;;;;;60.11;2.36;97535.28;7535567;22;20163;-73
2023/05/26 07:23:54;;;;;;;;;;;;;;;54.60;4.83;97506.25;6226963;28;19999;-74
2023/05/26 07:26:56;;;;;;;;;;;;;;;49.89;6.34;97484.69;6220692;28;19922;-73
2023/05/26 07:29:58;;;;;;;;;;;;;;;46.22;6.91;97466.66;6221705;28;19922;-74
2023/05/26 07:33:00;;;;;;;;;;;;;;;44.04;8.01;97464.09;6224200;28;19928;-73
2023/05/26 07:36:05;;;;;;;;;;;;;;;42.35;8.86;97460.59;6225700;28;19956;-73
2023/05/26 07:39:08;;;;;;;;;;;;;;;40.78;9.38;97455.63;6223957;28;20302;-74
2023/05/26 07:42:13;;;;;;;;;;;;;;;39.70;9.48;97454.78;6225202;28;19921;-74
2023/05/26 07:45:15;;;;;;;;;;;;;;;38.89;10.01;97460.00;6223684;28;20313;-74
2023/05/26 07:48:20;;;;;;;;;;;;;;;38.34;9.80;97460.16;6208540;28;19921;-74
2023/05/26 07:51:24;;;;;;;;;;;;;;;37.88;9.85;97457.03;6225145;28;20397;-74
2023/05/26 07:54:25;;;;;;;;;;;;;;;37.44;10.54;97457.09;6207235;28;19928;-73
2023/05/26 07:57:31;;;;;;;;;;;;;;;36.94;10.37;97444.38;6224191;28;19922;-73
2023/05/26 08:00:32;;;;;;;;;;;;;;;36.59;10.93;97445.56;6224820;28;20379;-74
2023/05/26 08:03:34;;;;;;;;;;;;;;;36.40;11.24;97446.91;6224727;28;19964;-74
2023/05/26 08:06:38;;;;;;;;;;;;;;;36.25;11.07;97438.47;6224752;28;19929;-74
2023/05/26 08:09:42;;;;;;;;;;;;;;;36.57;10.95;97447.72;6224213;28;19921;-73
2023/05/26 08:12:47;;;;;;;;;;;;;;;36.87;10.96;97446.50;6225226;28;19921;-73
2023/05/26 08:15:51;;;;;;;;;;;;;;;37.03;10.65;97445.66;6224627;28;19972;-74
2023/05/26 08:18:56;;;;;;;;;;;;;;;37.15;10.26;97447.44;6223276;28;19921;-74
2023/05/26 08:21:59;;;;;;;;;;;;;;;37.51;10.66;97441.28;6222641;28;19967;-73
2023/05/26 08:25:03;;;;;;;;;;;;;;;37.64;10.67;97444.69;6223057;28;20379;-74
2023/05/26 08:28:08;;;;;;;;;;;;;;;37.61;10.79;97439.72;6223963;28;19921;-74
2023/05/26 08:31:14;;;;;;;;;;;;;;;37.62;10.50;97435.88;6222776;28;20322;-73
2023/05/26 08:34:20;;;;;;;;;;;;;;;37.57;10.26;97433.06;6223103;28;20394;-73
2023/05/26 08:37:26;;;;;;;;;;;;;;;37.52;10.19;97440.19;6224277;28;19917;-73
2023/05/26 08:40:29;;;;;;;;;;;;;;;37.82;10.22;97432.50;6222836;28;19921;-73
2023/05/26 08:43:53;;;;;;;;;;;;;;;38.60;10.21;97430.94;6222087;28;20379;-74
2023/05/26 08:46:57;;;;;;;;;;;;;;;40.36;9.22;97431.16;6223411;28;19921;-74
2023/05/26 08:50:03;;;;;;;;;;;;;;;43.95;7.60;97435.41;6222728;28;20022;-73
2023/05/26 08:53:05;;;;;;;;;;;;;;;46.32;6.69;97441.38;6223624;28;20007;-73
2023/05/26 08:56:09;;;;;;;;;;;;;;;46.00;6.96;97445.22;6223192;28;19922;-73
2023/05/26 08:59:13;;;;;;;;;;;;;;;44.76;7.61;97433.16;6221741;28;20063;-74
2023/05/26 09:02:20;;;;;;;;;;;;;;;43.91;8.21;97426.03;6206530;28;19921;-73
2023/05/26 09:05:28;;;;;;;;;;;;;;;44.65;7.45;97434.47;6223442;28;20023;-75
2023/05/26 09:08:32;;;;;;;;;;;;;;;47.85;6.56;97447.31;6223661;28;19928;-74
2023/05/26 09:11:39;;;;;;;;;;;;;;;50.43;5.26;97458.69;6221944;28;20287;-74
2023/05/26 09:14:43;;;;;;;;;;;;;;;49.73;5.40;97452.88;6223113;28;19928;-73
2023/05/26 09:17:46;;;;;;;;;;;;;;;47.70;6.71;97448.59;6221608;28;19944;-74
2023/05/26 09:20:53;;;;;;;;;;;;;;;47.45;6.71;97450.25;6221895;28;19921;-74
2023/05/26 09:23:57;;;;;;;;;;;;;;;46.90;6.58;97445.94;6222950;28;19921;-74
2023/05/26 09:27:01;;;;;;;;;;;;;;;45.55;7.28;97445.97;6221305;28;19921;-74
2023/05/26 09:30:05;;;;;;;;;;;;;;;44.01;7.64;97425.88;6221480;28;19921;-75
2023/05/26 09:33:09;;;;;;;;;;;;;;;42.80;8.62;97419.75;6223048;28;20031;-74
2023/05/26 09:36:11;;;;;;;;;;;;;;;41.71;8.86;97420.97;6221352;28;19922;-74
2023/05/26 09:39:15;;;;;;;;;;;;;;;40.55;9.26;97410.16;6221907;28;20020;-75
2023/05/26 09:42:18;;;;;;;;;;;;;;;39.79;9.56;97411.03;6222718;28;19925;-75
2023/05/26 09:45:23;;;;;;;;;;;;;;;39.15;9.56;97411.41;6222561;28;19928;-74
2023/05/26 09:48:32;;;;;;;;;;;;;;;38.74;10.11;97403.78;6205449;28;20014;-74
2023/05/26 09:51:35;;;;;;;;;;;;;;;38.55;9.74;97406.16;6222316;28;20302;-76
2023/05/26 09:54:39;;;;;;;;;;;;;;;38.24;9.92;97399.63;6219739;28;19928;-76
2023/05/26 09:57:43;;;;;;;;;;;;;;;37.91;9.67;97407.06;6222142;28;20291;-73
2023/05/26 10:00:51;;;;;;;;;;;;;;;37.93;10.19;97399.34;6222025;28;19928;-74
2023/05/26 10:03:53;;;;;;;;;;;;;;;38.34;9.59;97396.13;6221661;28;19975;-74
2023/05/26 10:06:59;;;;;;;;;;;;;;;38.90;9.44;97392.88;6236495;28;19921;-74
2023/05/26 10:10:03;;;;;;;;;;;;;;;39.34;9.05;97395.25;6245323;28;19921;-74
2023/05/26 10:13:08;;;;;;;;;;;;;;;39.64;9.23;97397.22;6246408;28;20473;-74
2023/05/26 10:16:15;;;;;;;;;;;;;;;39.00;9.39;97398.41;6269752;27;2137836;-73
2023/05/26 10:19:17;;;;;;;;;;;;;;;38.65;9.87;97393.56;6342488;28;20030;-75
2023/05/26 10:22:29;;;;;;;;;;;;;;;39.22;9.32;97387.22;6323183;28;19924;-74
2023/05/26 10:25:31;;;;;;;;;;;;;;;39.93;9.15;97389.25;6340436;28;19963;-72
2023/05/26 10:28:46;;;;;;;;;;;;;;;40.20;8.76;97396.44;6341686;28;19931;-73
2023/05/26 10:31:52;;;;;;;;;;;;;;;40.82;8.81;97392.44;6341570;28;19975;-73
2023/05/26 10:34:58;;;;;;;;;;;;;;;41.61;8.36;97387.06;6341439;28;20015;-73
2023/05/26 10:38:01;;;;;;;;;;;;;;;41.88;8.30;97392.94;6341664;28;19924;-74
2023/05/26 10:41:14;;;;;;;;;;;;;;;41.88;8.08;97392.94;6341089;28;19924;-73
2023/05/26 10:44:35;;;;;;;;;;;;;;;42.08;8.23;97391.13;6340855;28;20388;-74
2023/05/26 10:47:46;;;;;;;;;;;;;;;42.53;7.84;97394.59;6340992;28;19924;-73
2023/05/26 10:50:59;;;;;;;;;;;;;;;43.43;7.34;97387.41;6340766;28;19924;-74
2023/05/26 10:54:18;;;;;;;;;;;;;;;43.13;7.75;97383.91;6340728;28;20020;-72
2023/05/26 10:57:32;;;;;;;;;;;;;;;42.06;8.10;97388.66;6341345;28;19931;-73
2023/05/26 11:00:37;;;;;;;;;;;;;;;40.63;8.70;97369.34;6341146;28;19928;-73
2023/05/26 11:03:43;;;;;;;;;;;;;;;40.50;8.69;97371.53;6341042;28;19919;-74
2023/05/26 11:06:51;;;;;;;;;;;;;;;40.94;8.58;97368.09;6340513;28;19924;-73
2023/05/26 11:10:10;;;;;;;;;;;;;;;40.77;8.58;97367.63;6341067;28;19919;-73
2023/05/26 11:13:11;;;;;;;;;;;;;;;40.21;8.98;97359.50;6340607;28;19924;-73
2023/05/26 11:16:18;;;;;;;;;;;;;;;39.58;9.46;97362.50;6338949;28;19924;-74
2023/05/26 11:19:28;;;;;;;;;;;;;;;39.22;9.78;97362.44;6340616;28;20374;-73
2023/05/26 11:22:29;;;;;;;;;;;;;;;38.57;10.24;97356.41;6338806;28;20326;-75
2023/05/26 11:25:43;;;;;;;;;;;;;;;38.49;9.92;97348.66;6317505;28;19923;-74
2023/05/26 11:28:46;;;;;;;;;;;;;;;38.28;10.54;97356.78;6322141;28;20393;-73
2023/05/26 11:31:50;;;;;;;;;;;;;;;37.96;10.18;97346.69;6323088;28;20005;-74
2023/05/26 11:34:53;;;;;;;;;;;;;;;37.79;10.35;97348.69;6321227;28;19947;-74
2023/05/26 11:37:55;;;;;;;;;;;;;;;38.23;10.15;97347.69;6323633;28;20073;-74
2023/05/26 11:41:02;;;;;;;;;;;;;;;38.89;9.88;97344.47;6323696;28;19924;-74
2023/05/26 11:44:09;;;;;;;;;;;;;;;39.33;9.57;97347.63;6321726;28;19931;-74
2023/05/26 11:47:14;;;;;;;;;;;;;;;39.42;9.45;97353.41;6323168;28;19931;-74
2023/05/26 11:50:18;;;;;;;;;;;;;;;38.09;10.03;97341.81;6321108;28;20011;-74
2023/05/26 11:53:27;;;;;;;;;;;;;;;37.10;10.81;97346.69;6305337;28;19931;-74
2023/05/26 11:56:32;;;;;;;;;;;;;;;36.02;11.41;97340.84;6322733;28;20405;-73
2023/05/26 11:59:36;;;;;;;;;;;;;;;35.95;11.64;97335.53;6320784;28;19924;-74
2023/05/26 12:02:43;;;;;;;;;;;;;;;36.07;11.49;97343.69;6321045;28;20383;-74
2023/05/26 12:05:47;;;;;;;;;;;;;;;35.92;11.40;97331.38;6322274;28;20022;-74
2023/05/26 12:08:52;;;;;;;;;;;;;;;35.99;11.33;97325.75;6322592;28;19920;-73
2023/05/26 12:11:57;;;;;;;;;;;;;;;35.78;11.54;97323.75;6322334;28;19924;-74
2023/05/26 12:15:03;;;;;;;;;;;;;;;35.69;11.63;97323.34;6320489;28;19946;-74
2023/05/26 12:18:10;;;;;;;;;;;;;;;35.83;11.51;97315.63;6320954;28;20008;-74
2023/05/26 12:21:14;;;;;;;;;;;;;;;35.94;11.33;97322.91;6303762;28;20421;-74
2023/05/26 12:24:35;;;;;;;;;;;;;;;36.24;11.50;97328.03;6322129;28;19931;-73
2023/05/26 12:27:39;;;;;;;;;;;;;;;36.43;11.28;97325.81;6321851;28;19974;-74
2023/05/26 12:30:42;;;;;;;;;;;;;;;36.26;11.46;97320.38;6321676;28;19986;-73
2023/05/26 12:33:43;;;;;;;;;;;;;;;36.10;11.67;97324.00;6321365;28;19935;-74
2023/05/26 12:36:45;;;;;;;;;;;;;;;35.81;11.49;97317.78;6303051;28;19924;-74
2023/05/26 12:39:46;;;;;;;;;;;;;;;35.30;11.86;97317.72;6321330;28;19931;-73
2023/05/26 12:42:47;;;;;;;;;;;;;;;34.94;12.03;97308.88;6321515;28;19923;-75
2023/05/26 12:45:48;;;;;;;;;;;;;;;34.47;12.40;97314.47;6321352;28;19950;-74
2023/05/26 12:48:49;;;;;;;;;;;;;;;34.40;12.48;97309.16;6321134;28;19924;-74
2023/05/26 12:51:53;;;;;;;;;;;;;;;34.25;12.44;97310.72;6321120;28;19924;-73
2023/05/26 12:54:59;;;;;;;;;;;;;;;34.24;12.53;97315.34;6320295;28;19924;-73
2023/05/26 12:58:02;;;;;;;;;;;;;;;34.42;12.42;97311.63;6319916;28;19924;-74
2023/05/26 13:01:10;;;;;;;;;;;;;;;34.39;12.63;97320.31;6321229;28;19970;-75
2023/05/26 13:04:14;;;;;;;;;;;;;;;34.00;12.73;97314.53;6319678;28;19947;-73
2023/05/26 13:07:20;;;;;;;;;;;;;;;33.68;13.20;97317.59;6321135;28;19924;-74
2023/05/26 13:10:24;;;;;;;;;;;;;;;32.94;13.84;97311.56;6320864;28;20405;-73
2023/05/26 13:13:26;;;;;;;;;;;;;;;32.33;13.69;97315.25;6320754;28;19924;-74
2023/05/26 13:16:31;;;;;;;;;;;;;;;32.22;13.88;97308.69;6320539;28;20294;-74
2023/05/26 13:19:35;;;;;;;;;;;;;;;31.88;14.54;97312.78;6319757;28;19931;-75
2023/05/26 13:22:44;;;;;;;;;;;;;;;31.51;14.65;97310.81;6302628;28;19924;-74
2023/05/26 13:25:49;;;;;;;;;;;;;;;31.39;14.40;97306.31;6319385;28;19924;-75
2023/05/26 13:28:53;;;;;;;;;;;;;;;31.36;14.70;97309.47;6318949;28;19924;-74
2023/05/26 13:31:55;;;;;;;;;;;;;;;31.32;14.46;97311.78;6318795;28;19946;-75
2023/05/26 13:34:58;;;;;;;;;;;;;;;31.23;14.61;97308.50;6318778;28;19930;-75
2023/05/26 13:38:02;;;;;;;;;;;;;;;31.10;15.05;97300.41;6320298;28;19924;-74
2023/05/26 13:41:06;;;;;;;;;;;;;;;31.10;15.05;97311.28;6320360;28;20309;-75
2023/05/26 13:44:07;;;;;;;;;;;;;;;31.01;15.04;97308.00;6319979;28;19924;-75
2023/05/26 13:47:08;;;;;;;;;;;;;;;30.92;15.04;97311.22;6320141;28;19928;-73
2023/05/26 13:50:10;;;;;;;;;;;;;;;30.82;15.37;97303.53;6319371;28;20017;-74
2023/05/26 13:53:16;;;;;;;;;;;;;;;30.49;15.23;97306.34;6320026;28;20136;-72
2023/05/26 13:56:20;;;;;;;;;;;;;;;30.45;15.88;97307.84;6319886;28;19988;-74
2023/05/26 13:59:21;;;;;;;;;;;;;;;30.10;15.85;97300.00;6320041;28;19931;-77
2023/05/26 14:02:25;;;;;;;;;;;;;;;29.84;16.36;97311.72;6318697;28;19924;-74
2023/05/26 14:05:26;;;;;;;;;;;;;;;29.67;16.45;97308.66;6319609;28;19924;-74
2023/05/26 14:08:28;;;;;;;;;;;;;;;29.40;16.55;97311.31;6319193;28;19963;-75
2023/05/26 14:11:30;;;;;;;;;;;;;;;29.20;16.76;97310.50;6319459;28;19924;-75
2023/05/26 14:14:33;;;;;;;;;;;;;;;29.03;16.77;97313.59;6319219;28;19928;-74
2023/05/26 14:17:34;;;;;;;;;;;;;;;29.01;17.11;97314.78;6319809;28;20366;-74
2023/05/26 14:20:38;;;;;;;;;;;;;;;28.81;17.45;97309.34;6319690;28;20367;-75
2023/05/26 14:23:41;;;;;;;;;;;;;;;28.61;17.81;97304.69;6319027;28;19931;-74
2023/05/26 14:26:45;;;;;;;;;;;;;;;28.62;17.86;97309.09;6319868;28;19924;-75
2023/05/26 14:29:47;;;;;;;;;;;;;;;28.70;17.58;97309.94;6319274;28;20309;-74
2023/05/26 14:32:52;;;;;;;;;;;;;;;28.82;17.63;97309.16;6319630;28;19924;-73
2023/05/26 14:35:56;;;;;;;;;;;;;;;28.80;17.40;97299.56;6319459;28;19924;-74
2023/05/26 14:39:00;;;;;;;;;;;;;;;28.78;17.41;97313.28;6319241;28;19924;-73
2023/05/26 14:42:03;;;;;;;;;;;;;;;28.72;17.62;97302.44;6319683;28;20324;-73
2023/05/26 14:45:07;;;;;;;;;;;;;;;28.52;17.92;97314.03;6318242;28;19924;-74
2023/05/26 14:48:10;;;;;;;;;;;;;;;28.49;18.12;97309.03;6318799;28;20309;-75
2023/05/26 14:51:16;;;;;;;;;;;;;;;28.29;18.34;97308.09;6319114;28;20313;-73
2023/05/26 14:54:22;;;;;;;;;;;;;;;28.11;18.65;97306.75;6319160;28;19924;-73
2023/05/26 14:57:25;;;;;;;;;;;;;;;28.04;18.35;97305.03;6318860;28;20404;-74
2023/05/26 15:00:29;;;;;;;;;;;;;;;27.91;18.43;97294.97;6319589;28;19943;-74
2023/05/26 15:03:32;;;;;;;;;;;;;;;27.86;18.43;97297.47;6324130;28;19924;-74
2023/05/26 15:06:37;;;;;;;;;;;;;;;27.88;18.55;97300.78;6324195;28;19923;-75
2023/05/26 15:09:43;;;;;;;;;;;;;;;27.72;18.61;97297.31;6324164;28;19924;-74
2023/05/26 15:12:47;;;;;;;;;;;;;;;27.68;18.91;97301.44;6324086;28;19924;-75
2023/05/26 15:15:48;;;;;;;;;;;;;;;27.64;18.88;97293.94;6323625;28;20046;-73
2023/05/26 15:18:52;;;;;;;;;;;;;;;27.49;18.95;97299.44;6323732;28;20016;-74
2023/05/26 15:21:53;;;;;;;;;;;;;;;27.39;18.87;97301.66;6323381;28;19924;-73
2023/05/26 15:25:00;;;;;;;;;;;;;;;27.25;18.76;97306.94;6323479;28;20408;-75
2023/05/26 15:28:05;;;;;;;;;;;;;;;27.14;19.13;97304.72;6323122;28;20324;-73
2023/05/26 15:31:06;;;;;;;;;;;;;;;27.02;19.06;97295.47;6322935;28;19924;-73
2023/05/26 15:34:12;;;;;;;;;;;;;;;26.96;19.31;97301.66;6323499;28;19924;-74
2023/05/26 15:37:15;;;;;;;;;;;;;;;26.80;19.70;97306.25;6323398;28;19924;-74
2023/05/26 15:40:19;;;;;;;;;;;;;;;26.74;19.82;97308.88;6323598;28;20014;-74
2023/05/26 15:43:21;;;;;;;;;;;;;;;26.50;20.16;97304.66;6322750;28;19924;-74
2023/05/26 15:46:23;;;;;;;;;;;;;;;26.36;20.53;97311.75;6322891;28;19931;-75
2023/05/26 15:49:26;;;;;;;;;;;;;;;26.28;20.14;97322.63;6322832;28;19924;-73
2023/05/26 15:52:32;;;;;;;;;;;;;;;26.21;20.80;97319.84;6322816;28;19924;-75
2023/05/26 15:55:35;;;;;;;;;;;;;;;26.14;20.52;97324.31;6323038;28;19932;-75
2023/05/26 15:58:38;;;;;;;;;;;;;;;26.05;20.52;97320.06;6321782;28;20385;-73
2023/05/26 16:01:44;;;;;;;;;;;;;;;25.91;20.22;97330.63;6322839;28;19924;-74
2023/05/26 16:04:45;;;;;;;;;;;;;;;25.77;20.67;97328.75;6322520;28;20285;-75
2023/05/26 16:07:47;;;;;;;;;;;;;;;25.63;21.39;97332.25;6322240;28;19928;-75
2023/05/26 16:10:50;;;;;;;;;;;;;;;25.49;21.35;97326.63;6322130;28;20404;-74
2023/05/26 16:13:57;;;;;;;;;;;;;;;25.56;22.03;97337.50;6322374;28;20367;-74
2023/05/26 16:17:00;;;;;;;;;;;;;;;25.42;21.97;97341.88;6322093;28;19924;-75
2023/05/26 16:20:03;;;;;;;;;;;;;;;25.28;22.04;97342.66;6322241;28;20389;-75
2023/05/26 16:23:05;;;;;;;;;;;;;;;25.18;22.57;97344.75;6322361;28;19928;-74
2023/05/26 16:26:06;;;;;;;;;;;;;;;25.06;23.60;97337.06;6321675;28;20348;-73
2023/05/26 16:29:08;;;;;;;;;;;;;;;24.95;23.11;97348.25;6321364;28;20306;-74
2023/05/26 16:32:10;;;;;;;;;;;;;;;24.87;23.34;97345.59;6321467;28;20415;-74
2023/05/26 16:35:11;;;;;;;;;;;;;;;24.86;24.03;97347.47;6321238;28;19924;-74
2023/05/26 16:38:13;;;;;;;;;;;;;;;24.75;23.82;97344.34;6320179;28;19924;-74
2023/05/26 16:41:16;;;;;;;;;;;;;;;24.73;24.27;97347.19;6322297;28;20389;-74
2023/05/26 16:44:21;;;;;;;;;;;;;;;24.61;25.53;97354.84;6322041;28;20381;-75
2023/05/26 16:47:22;;;;;;;;;;;;;;;24.49;25.27;97356.25;6321301;28;20431;-74
2023/05/26 16:50:25;;;;;;;;;;;;;;;24.41;25.06;97358.94;6321420;28;20015;-75
2023/05/26 16:53:26;;;;;;;;;;;;;;;24.30;24.83;97352.09;6321373;28;19931;-75
2023/05/26 16:56:27;;;;;;;;;;;;;;;24.19;24.86;97353.31;6319501;28;19924;-74
2023/05/26 16:59:31;;;;;;;;;;;;;;;24.11;25.35;97355.19;6321417;28;20312;-74
2023/05/26 17:02:35;;;;;;;;;;;;;;;23.94;25.55;97363.28;6321323;28;19920;-74